createdAt,value
2023-03-06T00:00:57.099Z,75.17
2023-03-06T00:01:59.461Z,73.00
2023-03-06T00:03:01.927Z,72.00
2023-03-06T00:04:04.453Z,71.67
2023-03-06T00:05:07.238Z,70.17
2023-03-06T00:06:09.660Z,69.67
2023-03-06T00:07:12.048Z,70.00
2023-03-06T00:08:14.596Z,70.00
2023-03-06T00:09:17.008Z,69.33
2023-03-06T00:10:22.473Z,69.67
2023-03-06T00:11:24.881Z,70.50
2023-03-06T00:12:27.709Z,70.17
2023-03-06T00:13:31.222Z,70.00
2023-03-06T00:14:33.636Z,70.00
2023-03-06T00:15:36.053Z,70.00
2023-03-06T00:16:38.513Z,69.83
2023-03-06T00:17:41.099Z,68.17
2023-03-06T00:18:44.142Z,66.33
2023-03-06T00:19:46.515Z,65.33
2023-03-06T00:20:48.847Z,65.00
2023-03-06T00:21:54.760Z,65.00
2023-03-06T00:22:57.756Z,65.83
2023-03-06T00:24:00.137Z,66.67
2023-03-06T00:25:02.585Z,67.67
2023-03-06T00:26:08.412Z,69.50
2023-03-06T00:27:10.805Z,73.83
2023-03-06T00:28:14.962Z,76.33
2023-03-06T00:29:17.562Z,77.00
2023-03-06T00:30:22.644Z,77.67
2023-03-06T00:31:25.042Z,79.00
2023-03-06T00:32:28.746Z,80.17
2023-03-06T00:33:31.319Z,80.00
2023-03-06T00:34:33.648Z,80.00
2023-03-06T00:35:38.904Z,80.00
2023-03-06T00:36:41.803Z,80.00
2023-03-06T00:37:44.541Z,80.00
2023-03-06T00:38:46.874Z,80.00
2023-03-06T00:39:49.710Z,80.00
2023-03-06T00:40:52.078Z,80.17
2023-03-06T00:41:55.666Z,80.83
2023-03-06T00:42:57.988Z,81.83
2023-03-06T00:44:00.309Z,84.50
2023-03-06T00:45:03.015Z,85.83
2023-03-06T00:46:05.962Z,86.00
2023-03-06T00:47:08.553Z,85.17
2023-03-06T00:48:10.884Z,85.00
2023-03-06T00:49:13.209Z,85.00
2023-03-06T00:50:15.604Z,85.00
2023-03-06T00:51:19.834Z,84.33
2023-03-06T00:52:22.170Z,83.17
2023-03-06T00:53:24.502Z,82.00
2023-03-06T00:54:26.821Z,81.00
2023-03-06T00:55:30.933Z,81.00
2023-03-06T00:56:33.344Z,81.00
2023-03-06T00:57:35.690Z,81.50
2023-03-06T00:58:37.993Z,81.00
2023-03-06T00:59:40.546Z,81.17
2023-03-06T01:00:43.906Z,82.50
2023-03-06T01:01:46.427Z,86.67
2023-03-06T01:02:48.827Z,91.67
2023-03-06T01:03:51.238Z,92.00
2023-03-06T01:04:53.658Z,91.50
2023-03-06T01:05:56.033Z,91.00
2023-03-06T01:06:58.440Z,92.50
2023-03-06T01:08:00.963Z,94.17
2023-03-06T01:09:04.537Z,96.00
2023-03-06T01:10:08.184Z,97.00
2023-03-06T01:11:10.651Z,97.50
2023-03-06T01:12:13.070Z,96.17
2023-03-06T01:13:15.437Z,92.33
2023-03-06T01:14:19.458Z,89.67
2023-03-06T01:15:22.729Z,89.17
2023-03-06T01:16:25.289Z,88.17
2023-03-06T01:17:27.727Z,87.67
2023-03-06T01:18:30.135Z,88.00
2023-03-06T01:19:32.478Z,86.33
2023-03-06T01:20:34.906Z,83.33
2023-03-06T01:21:37.240Z,81.67
2023-03-06T01:22:39.635Z,77.50
2023-03-06T01:23:42.157Z,75.17
2023-03-06T01:24:44.597Z,74.83
2023-03-06T01:25:47.027Z,75.50
2023-03-06T01:26:49.708Z,75.50
2023-03-06T01:27:53.087Z,76.00
2023-03-06T01:28:57.494Z,75.67
2023-03-06T01:29:59.825Z,76.00
2023-03-06T01:31:02.216Z,76.00
2023-03-06T01:32:04.947Z,74.67
2023-03-06T01:33:07.362Z,70.33
2023-03-06T01:34:09.745Z,69.00
2023-03-06T01:35:12.982Z,69.00
2023-03-06T01:36:15.498Z,69.50
2023-03-06T01:37:17.896Z,69.67
2023-03-06T01:38:20.348Z,70.17
2023-03-06T01:39:22.661Z,71.00
2023-03-06T01:40:24.998Z,71.50
2023-03-06T01:41:27.471Z,71.50
2023-03-06T01:42:31.999Z,72.00
2023-03-06T01:43:39.668Z,69.67
2023-03-06T01:45:06.746Z,66.00
2023-03-06T01:46:35.420Z,62.33
2023-03-06T01:47:37.805Z,60.17
2023-03-06T01:48:40.246Z,57.17
2023-03-06T01:49:42.653Z,55.33
2023-03-06T01:50:45.059Z,54.00
2023-03-06T01:51:57.462Z,52.83
2023-03-06T01:53:01.159Z,53.00
2023-03-06T01:54:09.084Z,53.83
2023-03-06T01:55:16.421Z,54.67
2023-03-06T01:56:19.489Z,56.00
2023-03-06T01:57:30.980Z,56.00
2023-03-06T01:58:33.488Z,54.67
2023-03-06T01:59:38.517Z,53.17
2023-03-06T02:00:40.911Z,51.83
2023-03-06T02:01:44.429Z,50.17
2023-03-06T02:03:14.320Z,49.00
2023-03-06T02:04:17.718Z,50.00
2023-03-06T02:05:20.340Z,50.00
2023-03-06T02:06:22.764Z,50.00
2023-03-06T02:07:25.212Z,50.83
2023-03-06T02:08:28.913Z,50.00
2023-03-06T02:09:32.840Z,50.00
2023-03-06T02:10:35.562Z,48.33
2023-03-06T02:11:38.047Z,47.00
2023-03-06T02:12:43.751Z,45.83
2023-03-06T02:13:47.220Z,45.00
2023-03-06T02:14:50.241Z,45.00
2023-03-06T02:15:52.629Z,45.00
2023-03-06T02:16:55.067Z,45.00
2023-03-06T02:17:57.638Z,45.00
2023-03-06T02:19:02.417Z,45.00
2023-03-06T02:20:04.743Z,45.67
2023-03-06T02:21:10.153Z,45.67
2023-03-06T02:22:12.640Z,46.00
2023-03-06T02:23:41.373Z,46.00
2023-03-06T02:24:52.216Z,47.33
2023-03-06T02:25:54.696Z,51.50
2023-03-06T02:26:59.933Z,54.50
2023-03-06T02:28:02.350Z,59.67
2023-03-06T02:29:05.145Z,62.83
2023-03-06T02:30:08.738Z,62.50
2023-03-06T02:31:22.481Z,61.33
2023-03-06T02:32:24.870Z,60.67
2023-03-06T02:33:29.317Z,61.00
2023-03-06T02:34:53.758Z,62.33
2023-03-06T02:35:59.493Z,63.00
2023-03-06T02:37:05.644Z,63.00
2023-03-06T02:38:11.740Z,63.50
2023-03-06T02:39:16.040Z,63.67
2023-03-06T02:40:21.181Z,63.00
2023-03-06T02:41:23.549Z,63.33
2023-03-06T02:42:28.962Z,64.00
2023-03-06T02:43:33.933Z,64.50
2023-03-06T02:44:36.747Z,65.50
2023-03-06T02:45:44.502Z,66.67
2023-03-06T02:46:46.913Z,67.00
2023-03-06T02:47:49.277Z,67.67
2023-03-06T02:48:51.682Z,68.00
2023-03-06T02:49:54.109Z,68.67
2023-03-06T02:50:56.543Z,70.17
2023-03-06T02:51:58.912Z,71.00
2023-03-06T02:53:01.320Z,73.00
2023-03-06T02:54:03.798Z,76.33
2023-03-06T02:55:06.652Z,77.50
2023-03-06T02:56:08.980Z,76.83
2023-03-06T02:57:11.398Z,76.00
2023-03-06T02:58:13.812Z,76.00
2023-03-06T02:59:16.206Z,76.33
2023-03-06T03:00:19.337Z,76.83
2023-03-06T03:01:42.204Z,76.00
2023-03-06T03:03:06.041Z,76.00
2023-03-06T03:04:08.841Z,75.50
2023-03-06T03:05:11.394Z,75.50
2023-03-06T03:06:13.769Z,76.00
2023-03-06T03:07:16.135Z,76.00
2023-03-06T03:08:18.537Z,75.83
2023-03-06T03:09:20.916Z,75.83
2023-03-06T03:10:23.362Z,76.00
2023-03-06T03:11:25.736Z,76.00
2023-03-06T03:12:28.810Z,77.17
2023-03-06T03:13:31.266Z,79.83
2023-03-06T03:14:35.816Z,81.00
2023-03-06T03:15:38.347Z,81.00
2023-03-06T03:16:40.716Z,81.00
2023-03-06T03:17:43.200Z,81.17
2023-03-06T03:18:48.046Z,82.17
2023-03-06T03:19:50.826Z,83.00
2023-03-06T03:20:53.222Z,83.00
2023-03-06T03:21:55.645Z,84.33
2023-03-06T03:22:58.067Z,87.67
2023-03-06T03:24:00.434Z,87.33
2023-03-06T03:25:04.108Z,87.67
2023-03-06T03:26:20.549Z,87.50
2023-03-06T03:27:23.014Z,87.67
2023-03-06T03:28:25.349Z,90.50
2023-03-06T03:29:27.735Z,93.33
2023-03-06T03:30:30.144Z,93.00
2023-03-06T03:31:33.025Z,92.83
2023-03-06T03:32:35.394Z,92.00
2023-03-06T03:33:38.979Z,91.67
2023-03-06T03:34:41.344Z,91.33
2023-03-06T03:35:43.713Z,91.50
2023-03-06T03:36:46.645Z,92.50
2023-03-06T03:37:49.103Z,94.33
2023-03-06T03:38:51.555Z,96.33
2023-03-06T03:39:54.011Z,98.17
2023-03-06T03:40:56.404Z,97.67
2023-03-06T03:41:58.908Z,97.83
2023-03-06T03:43:01.247Z,99.50
2023-03-06T03:44:03.657Z,105.00
2023-03-06T03:45:06.477Z,108.17
2023-03-06T03:46:08.899Z,109.50
2023-03-06T03:47:11.338Z,109.17
2023-03-06T03:48:13.780Z,109.83
2023-03-06T03:49:16.230Z,110.83
2023-03-06T03:50:19.127Z,111.67
2023-03-06T03:51:22.070Z,112.33
2023-03-06T03:52:24.524Z,112.00
2023-03-06T03:53:26.858Z,111.67
2023-03-06T03:54:29.319Z,111.00
2023-03-06T03:55:31.761Z,111.50
2023-03-06T03:56:34.242Z,113.00
2023-03-06T03:57:36.698Z,115.00
2023-03-06T03:58:39.721Z,117.50
2023-03-06T03:59:42.073Z,117.83
2023-03-06T04:00:44.504Z,123.33
2023-03-06T04:01:47.004Z,131.50
2023-03-06T04:02:49.615Z,128.67
2023-03-06T04:03:52.255Z,130.33
2023-03-06T04:04:54.718Z,129.83
2023-03-06T04:05:58.145Z,133.33
2023-03-06T04:07:00.886Z,134.67
2023-03-06T04:08:03.379Z,145.17
2023-03-06T04:09:05.872Z,152.33
2023-03-06T04:10:10.414Z,152.83
2023-03-06T04:11:12.804Z,166.17
2023-03-06T04:12:15.361Z,159.17
2023-03-06T04:13:21.013Z,164.17
2023-03-06T04:14:23.378Z,170.00
2023-03-06T04:15:25.801Z,174.83
2023-03-06T04:16:28.152Z,179.50
2023-03-06T04:17:30.670Z,187.33
2023-03-06T04:18:33.072Z,191.17
2023-03-06T04:19:35.408Z,196.00
2023-03-06T04:20:37.763Z,195.33
2023-03-06T04:21:40.491Z,196.00
2023-03-06T04:22:42.871Z,200.00
2023-03-06T04:23:45.233Z,198.17
2023-03-06T04:24:49.978Z,193.00
2023-03-06T04:25:52.342Z,191.33
2023-03-06T04:26:54.758Z,196.00
2023-03-06T04:27:57.118Z,196.00
2023-03-06T04:28:59.596Z,194.33
2023-03-06T04:30:01.959Z,196.33
2023-03-06T04:31:04.462Z,194.33
2023-03-06T04:32:07.341Z,195.17
2023-03-06T04:33:09.805Z,193.33
2023-03-06T04:34:12.237Z,185.67
2023-03-06T04:35:14.587Z,182.00
2023-03-06T04:36:29.249Z,182.83
2023-03-06T04:37:31.696Z,189.17
2023-03-06T04:38:34.120Z,193.33
2023-03-06T04:39:36.570Z,196.83
2023-03-06T04:40:39.019Z,202.17
2023-03-06T04:41:42.124Z,201.33
2023-03-06T04:42:45.005Z,205.50
2023-03-06T04:43:47.392Z,218.00
2023-03-06T04:44:49.788Z,228.67
2023-03-06T04:45:52.262Z,238.33
2023-03-06T04:46:54.670Z,245.67
2023-03-06T04:47:57.064Z,245.50
2023-03-06T04:48:59.552Z,243.17
2023-03-06T04:50:02.250Z,244.33
2023-03-06T04:51:04.761Z,244.67
2023-03-06T04:52:07.374Z,255.83
2023-03-06T04:53:11.053Z,266.67
2023-03-06T04:54:13.381Z,271.17
2023-03-06T04:55:16.696Z,281.00
2023-03-06T04:56:19.045Z,288.17
2023-03-06T04:57:22.133Z,285.67
2023-03-06T04:58:25.253Z,272.67
2023-03-06T04:59:27.641Z,269.67
2023-03-06T05:00:33.336Z,267.00
2023-03-06T05:01:35.775Z,255.50
2023-03-06T05:02:38.131Z,236.00
2023-03-06T05:03:40.498Z,232.00
2023-03-06T05:04:43.198Z,236.83
2023-03-06T05:05:46.424Z,238.67
2023-03-06T05:06:49.696Z,240.17
2023-03-06T05:07:52.901Z,241.50
2023-03-06T05:08:55.469Z,241.00
2023-03-06T05:09:57.799Z,238.50
2023-03-06T05:11:01.680Z,232.00
2023-03-06T05:12:04.385Z,220.67
2023-03-06T05:13:06.820Z,216.17
2023-03-06T05:14:09.203Z,211.33
2023-03-06T05:15:12.714Z,205.17
2023-03-06T05:16:15.521Z,194.33
2023-03-06T05:17:17.916Z,195.67
2023-03-06T05:18:21.229Z,195.67
2023-03-06T05:19:23.716Z,184.00
2023-03-06T05:20:26.306Z,190.83
2023-03-06T05:21:28.694Z,190.50
2023-03-06T05:22:31.242Z,190.67
2023-03-06T05:23:36.475Z,189.83
2023-03-06T05:24:38.891Z,191.83
2023-03-06T05:25:42.163Z,193.00
2023-03-06T05:26:44.544Z,192.67
2023-03-06T05:27:47.277Z,193.17
2023-03-06T05:28:49.741Z,191.33
2023-03-06T05:29:52.152Z,191.83
2023-03-06T05:30:54.525Z,190.50
2023-03-06T05:31:56.889Z,189.83
2023-03-06T05:33:00.307Z,190.00
2023-03-06T05:34:02.633Z,191.00
2023-03-06T05:35:05.992Z,195.00
2023-03-06T05:36:09.693Z,199.17
2023-03-06T05:37:12.137Z,201.67
2023-03-06T05:38:16.063Z,202.33
2023-03-06T05:39:18.490Z,201.17
2023-03-06T05:40:21.023Z,199.17
2023-03-06T05:41:23.402Z,199.17
2023-03-06T05:42:28.468Z,198.83
2023-03-06T05:43:30.916Z,196.50
2023-03-06T05:44:35.095Z,197.33
2023-03-06T05:45:38.333Z,200.33
2023-03-06T05:46:40.716Z,204.50
2023-03-06T05:47:43.122Z,207.17
2023-03-06T05:48:46.757Z,207.00
2023-03-06T05:49:49.358Z,207.00
2023-03-06T05:50:58.781Z,207.83
2023-03-06T05:52:04.086Z,209.67
2023-03-06T05:53:06.988Z,208.67
2023-03-06T05:54:09.354Z,208.33
2023-03-06T05:55:12.503Z,210.50
2023-03-06T05:56:14.858Z,217.00
2023-03-06T05:57:19.894Z,227.50
2023-03-06T05:58:22.315Z,226.33
2023-03-06T05:59:28.196Z,227.83
2023-03-06T06:00:30.599Z,230.33
2023-03-06T06:01:32.960Z,230.83
2023-03-06T06:02:35.446Z,233.67
2023-03-06T06:03:38.357Z,235.00
2023-03-06T06:04:40.876Z,240.33
2023-03-06T06:05:43.265Z,250.00
2023-03-06T06:06:45.606Z,259.00
2023-03-06T06:07:47.968Z,265.00
2023-03-06T06:08:50.325Z,266.50
2023-03-06T06:09:53.537Z,266.50
2023-03-06T06:10:55.875Z,268.00
2023-03-06T06:12:01.046Z,270.00
2023-03-06T06:13:03.406Z,273.67
2023-03-06T06:14:05.799Z,280.83
2023-03-06T06:15:08.430Z,280.50
2023-03-06T06:16:13.234Z,276.83
2023-03-06T06:17:16.713Z,271.83
2023-03-06T06:18:19.099Z,270.00
2023-03-06T06:19:22.375Z,264.83
2023-03-06T06:20:25.458Z,249.50
2023-03-06T06:21:27.813Z,237.83
2023-03-06T06:22:30.196Z,228.33
2023-03-06T06:23:32.638Z,221.33
2023-03-06T06:24:35.032Z,223.83
2023-03-06T06:25:40.174Z,223.33
2023-03-06T06:26:44.990Z,225.00
2023-03-06T06:27:47.363Z,224.67
2023-03-06T06:28:49.807Z,221.83
2023-03-06T06:29:52.688Z,222.50
2023-03-06T06:30:55.086Z,221.17
2023-03-06T06:31:57.510Z,216.67
2023-03-06T06:32:59.961Z,213.83
2023-03-06T06:34:03.895Z,212.00
2023-03-06T06:35:06.725Z,200.33
2023-03-06T06:36:17.307Z,195.17
2023-03-06T06:37:19.693Z,192.67
2023-03-06T06:38:22.075Z,187.50
2023-03-06T06:39:25.140Z,176.83
2023-03-06T06:40:28.328Z,173.33
2023-03-06T06:41:50.735Z,179.67
2023-03-06T06:42:53.865Z,179.17
2023-03-06T06:43:59.036Z,184.17
2023-03-06T06:45:01.554Z,179.67
2023-03-06T06:46:32.085Z,179.00
2023-03-06T06:47:27.036Z,172.67
2023-03-06T06:48:29.448Z,170.50
2023-03-06T06:49:32.017Z,170.67
2023-03-06T06:50:34.462Z,168.00
2023-03-06T06:51:37.488Z,163.50
2023-03-06T06:52:40.052Z,162.17
2023-03-06T06:53:42.602Z,166.00
2023-03-06T06:54:45.609Z,167.33
2023-03-06T06:55:48.005Z,166.83
2023-03-06T06:56:50.663Z,163.33
2023-03-06T06:57:53.368Z,162.67
2023-03-06T06:59:06.898Z,154.67
2023-03-06T07:00:18.041Z,145.83
2023-03-06T07:01:20.745Z,149.83
2023-03-06T07:02:23.267Z,151.00
2023-03-06T07:03:25.662Z,150.33
2023-03-06T07:04:28.045Z,147.50
2023-03-06T07:05:30.418Z,148.17
2023-03-06T07:06:32.769Z,149.67
2023-03-06T07:07:37.340Z,151.33
2023-03-06T07:08:39.761Z,154.67
2023-03-06T07:09:42.387Z,157.00
2023-03-06T07:10:44.736Z,157.33
2023-03-06T07:11:47.072Z,156.33
2023-03-06T07:12:49.451Z,155.00
2023-03-06T07:13:51.800Z,149.50
2023-03-06T07:14:54.316Z,145.67
2023-03-06T07:15:56.743Z,143.67
2023-03-06T07:16:59.249Z,142.17
2023-03-06T07:18:01.747Z,141.17
2023-03-06T07:19:04.487Z,140.83
2023-03-06T07:20:08.862Z,146.17
2023-03-06T07:21:11.787Z,159.00
2023-03-06T07:22:14.180Z,166.83
2023-03-06T07:23:16.672Z,162.33
2023-03-06T07:24:19.009Z,155.83
2023-03-06T07:25:21.536Z,151.83
2023-03-06T07:26:24.998Z,148.50
2023-03-06T07:27:27.451Z,146.83
2023-03-06T07:28:35.583Z,144.67
2023-03-06T07:29:43.713Z,145.83
2023-03-06T07:30:46.274Z,146.00
2023-03-06T07:31:48.703Z,144.50
2023-03-06T07:32:56.293Z,140.50
2023-03-06T07:33:58.709Z,130.50
2023-03-06T07:35:19.010Z,124.33
2023-03-06T07:36:24.042Z,123.00
2023-03-06T07:37:26.448Z,122.17
2023-03-06T07:38:28.834Z,118.50
2023-03-06T07:39:31.260Z,111.17
2023-03-06T07:40:33.849Z,106.50
2023-03-06T07:41:36.560Z,108.17
2023-03-06T07:42:38.957Z,109.00
2023-03-06T07:43:41.624Z,109.33
2023-03-06T07:44:44.085Z,112.00
2023-03-06T07:45:47.075Z,113.50
2023-03-06T07:46:49.588Z,114.83
2023-03-06T07:47:52.885Z,116.00
2023-03-06T07:48:55.834Z,114.00
2023-03-06T07:49:59.520Z,104.83
2023-03-06T07:51:06.543Z,98.33
2023-03-06T07:52:09.088Z,83.00
2023-03-06T07:53:11.689Z,69.33
2023-03-06T07:54:14.092Z,65.83
2023-03-06T07:55:16.582Z,69.50
2023-03-06T07:56:21.250Z,77.00
2023-03-06T07:57:23.672Z,80.00
2023-03-06T07:58:26.496Z,82.33
2023-03-06T07:59:28.872Z,83.33
2023-03-06T08:00:31.313Z,75.67
2023-03-06T08:01:33.686Z,76.17
2023-03-06T08:02:36.117Z,79.33
2023-03-06T08:03:38.905Z,81.00
2023-03-06T08:04:42.247Z,81.83
2023-03-06T08:05:44.958Z,77.17
2023-03-06T08:06:47.298Z,67.00
2023-03-06T08:07:49.696Z,59.50
2023-03-06T08:08:53.631Z,58.50
2023-03-06T08:09:56.031Z,61.50
2023-03-06T08:10:58.478Z,60.00
2023-03-06T08:12:01.295Z,46.67
2023-03-06T08:13:04.063Z,46.00
2023-03-06T08:14:06.453Z,50.67
2023-03-06T08:15:11.162Z,51.50
2023-03-06T08:16:13.577Z,49.00
2023-03-06T08:17:15.986Z,46.67
2023-03-06T08:18:18.452Z,46.00
2023-03-06T08:19:20.835Z,48.00
2023-03-06T08:20:23.305Z,49.50
2023-03-06T08:21:27.778Z,51.67
2023-03-06T08:22:30.125Z,60.33
2023-03-06T08:23:33.584Z,71.67
2023-03-06T08:24:36.017Z,77.33
2023-03-06T08:25:38.346Z,73.33
2023-03-06T08:26:40.704Z,69.50
2023-03-06T08:27:43.435Z,68.50
2023-03-06T08:28:46.149Z,67.33
2023-03-06T08:29:48.489Z,65.00
2023-03-06T08:30:50.863Z,61.33
2023-03-06T08:31:53.423Z,59.00
2023-03-06T08:32:55.818Z,56.00
2023-03-06T08:34:00.364Z,54.17
2023-03-06T08:35:06.601Z,52.33
2023-03-06T08:36:09.134Z,49.17
2023-03-06T08:37:11.635Z,44.83
2023-03-06T08:38:14.302Z,42.33
2023-03-06T08:39:16.850Z,42.83
2023-03-06T08:40:19.225Z,43.17
2023-03-06T08:41:21.646Z,44.17
2023-03-06T08:42:24.076Z,46.00
2023-03-06T08:43:26.689Z,48.67
2023-03-06T08:44:29.090Z,49.00
2023-03-06T08:45:31.563Z,49.17
2023-03-06T08:46:35.011Z,48.50
2023-03-06T08:47:37.504Z,45.17
2023-03-06T08:48:40.175Z,39.00
2023-03-06T08:49:42.669Z,36.50
2023-03-06T08:50:45.047Z,37.50
2023-03-06T08:51:47.411Z,38.33
2023-03-06T08:52:49.821Z,39.17
2023-03-06T08:53:52.610Z,40.00
2023-03-06T08:54:55.123Z,40.00
2023-03-06T08:55:57.537Z,39.33
2023-03-06T08:56:59.975Z,37.17
2023-03-06T08:58:02.766Z,35.17
2023-03-06T08:59:06.202Z,35.50
2023-03-06T09:00:10.965Z,36.00
2023-03-06T09:01:28.197Z,36.00
2023-03-06T09:02:30.656Z,36.50
2023-03-06T09:03:33.124Z,37.00
2023-03-06T09:04:35.408Z,37.17
2023-03-06T09:05:40.433Z,38.50
2023-03-06T09:06:45.427Z,39.50
2023-03-06T09:07:47.910Z,40.00
2023-03-06T09:08:55.152Z,40.17
2023-03-06T09:09:57.957Z,41.00
2023-03-06T09:11:00.292Z,41.17
2023-03-06T09:12:02.728Z,42.00
2023-03-06T09:13:05.168Z,42.00
2023-03-06T09:14:07.659Z,42.00
2023-03-06T09:15:10.717Z,42.67
2023-03-06T09:16:13.179Z,43.00
2023-03-06T09:17:15.571Z,43.00
2023-03-06T09:18:18.226Z,43.00
2023-03-06T09:19:20.665Z,42.17
2023-03-06T09:20:23.147Z,40.67
2023-03-06T09:21:27.272Z,40.00
2023-03-06T09:22:29.717Z,40.00
2023-03-06T09:23:32.374Z,40.00
2023-03-06T09:24:34.892Z,39.50
2023-03-06T09:25:37.242Z,38.33
2023-03-06T09:26:46.177Z,38.00
2023-03-06T09:28:01.907Z,38.00
2023-03-06T09:29:08.087Z,38.50
2023-03-06T09:30:14.293Z,39.00
2023-03-06T09:31:19.768Z,39.00
2023-03-06T09:32:22.818Z,39.00
2023-03-06T09:33:25.653Z,39.00
2023-03-06T09:34:28.381Z,38.67
2023-03-06T09:35:30.761Z,38.00
2023-03-06T09:36:42.731Z,38.83
2023-03-06T09:37:52.229Z,39.67
2023-03-06T09:38:55.041Z,41.17
2023-03-06T09:39:59.928Z,43.17
2023-03-06T09:41:14.993Z,44.00
2023-03-06T09:42:19.927Z,44.00
2023-03-06T09:43:28.018Z,44.00
2023-03-06T09:44:32.641Z,45.50
2023-03-06T09:45:37.189Z,46.67
2023-03-06T09:47:04.043Z,46.00
2023-03-06T09:48:13.867Z,45.83
2023-03-06T09:49:38.647Z,45.00
2023-03-06T09:50:46.375Z,47.33
2023-03-06T09:52:30.084Z,49.50
2023-03-06T09:53:56.789Z,53.50
2023-03-06T09:55:05.121Z,52.33
2023-03-06T09:56:18.778Z,50.67
2023-03-06T09:57:31.917Z,49.00
2023-03-06T09:58:42.811Z,49.17
2023-03-06T09:59:48.991Z,49.33
2023-03-06T10:01:07.382Z,49.67
2023-03-06T10:02:12.589Z,50.00
2023-03-06T10:03:25.241Z,50.83
2023-03-06T10:04:38.376Z,51.00
2023-03-06T10:05:47.624Z,51.00
2023-03-06T10:06:51.860Z,50.83
2023-03-06T10:08:02.320Z,51.67
2023-03-06T10:09:12.937Z,57.33
2023-03-06T10:10:21.105Z,62.83
2023-03-06T10:12:03.861Z,62.00
2023-03-06T10:13:25.381Z,60.33
2023-03-06T10:14:49.560Z,60.83
2023-03-06T10:16:07.253Z,60.17
2023-03-06T10:17:17.211Z,61.83
2023-03-06T10:18:19.608Z,66.33
2023-03-06T10:19:22.262Z,67.50
2023-03-06T10:20:45.525Z,66.33
2023-03-06T10:22:23.102Z,64.00
2023-03-06T10:23:53.914Z,61.33
2023-03-06T10:25:20.177Z,59.83
2023-03-06T10:26:28.838Z,62.50
2023-03-06T10:27:47.970Z,63.00
2023-03-06T10:29:11.636Z,62.67
2023-03-06T10:30:46.509Z,61.83
2023-03-06T10:31:57.159Z,59.50
2023-03-06T10:33:17.496Z,60.00
2023-03-06T10:34:27.725Z,65.67
2023-03-06T10:35:56.366Z,72.00
2023-03-06T10:37:06.274Z,70.00
2023-03-06T10:38:21.131Z,72.50
2023-03-06T10:39:23.687Z,73.67
2023-03-06T10:40:34.891Z,82.67
2023-03-06T10:41:38.379Z,84.50
2023-03-06T10:42:40.799Z,79.67
2023-03-06T10:43:45.175Z,73.17
2023-03-06T10:44:47.588Z,65.17
2023-03-06T10:45:52.765Z,59.67
2023-03-06T10:46:56.354Z,58.83
2023-03-06T10:48:14.389Z,60.17
2023-03-06T10:49:22.877Z,62.67
2023-03-06T10:50:28.411Z,63.00
2023-03-06T10:51:31.691Z,63.00
2023-03-06T10:52:35.668Z,63.33
2023-03-06T10:53:49.279Z,61.17
2023-03-06T10:54:51.694Z,58.83
2023-03-06T10:55:57.509Z,59.00
2023-03-06T10:57:31.101Z,57.33
2023-03-06T10:58:33.596Z,56.67
2023-03-06T10:59:53.705Z,57.33
2023-03-06T11:01:02.884Z,58.00
2023-03-06T11:02:37.347Z,58.00
2023-03-06T11:03:39.858Z,62.00
2023-03-06T11:04:47.483Z,62.00
2023-03-06T11:06:30.990Z,61.50
2023-03-06T11:07:35.534Z,60.83
2023-03-06T11:08:38.986Z,61.67
2023-03-06T11:10:19.175Z,65.17
2023-03-06T11:11:36.893Z,75.00
2023-03-06T11:12:41.892Z,74.17
2023-03-06T11:13:56.998Z,77.33
2023-03-06T11:15:14.515Z,76.00
2023-03-06T11:16:20.400Z,75.00
2023-03-06T11:17:32.227Z,74.00
2023-03-06T11:18:38.828Z,73.67
2023-03-06T11:19:41.229Z,73.00
2023-03-06T11:20:54.555Z,73.50
2023-03-06T11:22:07.709Z,73.00
2023-03-06T11:23:33.199Z,72.00
2023-03-06T11:24:40.041Z,69.17
2023-03-06T11:26:05.987Z,66.33
2023-03-06T11:27:34.615Z,65.17
2023-03-06T11:28:44.215Z,70.50
2023-03-06T11:29:49.787Z,73.00
2023-03-06T11:31:08.470Z,72.50
2023-03-06T11:32:22.808Z,68.67
2023-03-06T11:33:34.355Z,66.00
2023-03-06T11:34:48.628Z,63.83
2023-03-06T11:36:15.578Z,63.00
2023-03-06T11:37:43.402Z,65.50
2023-03-06T11:38:49.718Z,70.33
2023-03-06T11:40:12.305Z,71.00
2023-03-06T11:41:42.707Z,70.33
2023-03-06T11:43:07.162Z,68.33
2023-03-06T11:44:30.919Z,64.33
2023-03-06T11:45:45.625Z,58.33
2023-03-06T11:46:51.771Z,54.17
2023-03-06T11:48:15.998Z,50.00
2023-03-06T11:49:57.035Z,49.00
2023-03-06T11:51:18.406Z,48.50
2023-03-06T11:52:37.901Z,50.00
2023-03-06T11:53:43.155Z,51.33
2023-03-06T11:54:49.130Z,54.00
2023-03-06T11:56:18.910Z,55.67
2023-03-06T11:57:49.271Z,58.00
2023-03-06T11:59:04.247Z,55.00
2023-03-06T12:00:15.905Z,51.17
2023-03-06T12:01:32.942Z,47.33
2023-03-06T12:02:58.625Z,41.67
2023-03-06T12:04:30.038Z,43.50
2023-03-06T12:05:41.459Z,86.83
2023-03-06T12:06:59.786Z,71.17
2023-03-06T12:08:25.389Z,67.17
2023-03-06T12:09:42.770Z,65.33
2023-03-06T12:11:20.196Z,68.33
2023-03-06T12:12:47.850Z,64.67
2023-03-06T12:14:13.236Z,62.67
2023-03-06T12:15:52.443Z,61.17
2023-03-06T12:16:58.656Z,57.33
2023-03-06T12:18:03.740Z,54.00
2023-03-06T12:19:41.493Z,52.33
2023-03-06T12:20:46.508Z,51.00
2023-03-06T12:22:02.375Z,50.17
2023-03-06T12:23:15.337Z,50.00
2023-03-06T12:24:53.415Z,48.83
2023-03-06T12:26:05.198Z,47.67
2023-03-06T12:27:19.953Z,46.67
2023-03-06T12:28:26.279Z,43.33
2023-03-06T12:29:50.344Z,44.00
2023-03-06T12:31:06.071Z,45.33
2023-03-06T12:32:11.491Z,48.00
2023-03-06T12:33:36.025Z,55.33
2023-03-06T12:34:45.252Z,86.67
2023-03-06T12:35:57.563Z,74.33
2023-03-06T12:37:21.510Z,69.00
2023-03-06T12:38:47.422Z,144.00
2023-03-06T12:40:38.048Z,165.83
2023-03-06T12:41:43.612Z,83.00
2023-03-06T12:43:18.790Z,58.33
2023-03-06T12:44:27.714Z,46.17
2023-03-06T12:45:52.129Z,51.83
2023-03-06T12:49:12.377Z,54.50
2023-03-06T12:50:28.871Z,52.83
2023-03-06T12:51:32.801Z,54.83
2023-03-06T12:52:35.866Z,55.00
2023-03-06T12:53:40.512Z,54.50
2023-03-06T12:54:43.609Z,50.50
2023-03-06T12:55:47.985Z,47.83
2023-03-06T12:56:51.286Z,46.83
2023-03-06T12:57:54.245Z,45.50
2023-03-06T12:58:58.715Z,46.33
2023-03-06T13:01:15.307Z,46.00
2023-03-06T13:02:23.362Z,46.33
2023-03-06T13:03:28.780Z,47.67
2023-03-06T13:04:41.695Z,48.83
2023-03-06T13:06:17.806Z,49.83
2023-03-06T13:07:47.781Z,55.33
2023-03-06T13:09:04.832Z,99.67
2023-03-06T13:10:27.317Z,79.17
2023-03-06T13:11:43.164Z,75.83
2023-03-06T13:13:05.630Z,74.83
2023-03-06T13:14:54.700Z,73.50
2023-03-06T13:18:00.000Z,72.17
2023-03-06T13:20:51.326Z,127.50
2023-03-06T13:22:56.675Z,180.17
2023-03-06T13:24:23.085Z,237.67
2023-03-06T13:25:33.426Z,232.67
2023-03-06T13:28:54.052Z,100.50
2023-03-06T13:30:21.221Z,102.83
2023-03-06T13:31:46.589Z,94.50
2023-03-06T13:32:53.049Z,89.50
2023-03-06T13:33:59.095Z,88.00
2023-03-06T13:35:01.831Z,84.50
2023-03-06T13:36:32.975Z,101.83
2023-03-06T13:37:35.900Z,107.17
2023-03-06T13:38:40.937Z,85.17
2023-03-06T13:39:55.250Z,77.17
2023-03-06T13:41:25.076Z,73.50
2023-03-06T13:42:47.955Z,62.17
2023-03-06T13:44:19.758Z,63.67
2023-03-06T13:45:30.339Z,69.33
2023-03-06T13:46:35.878Z,68.33
2023-03-06T13:48:06.439Z,65.00
2023-03-06T13:49:09.667Z,65.00
2023-03-06T13:50:30.884Z,65.00
2023-03-06T13:51:42.391Z,65.17
2023-03-06T13:53:26.057Z,67.00
2023-03-06T13:55:06.356Z,68.17
2023-03-06T13:56:48.152Z,70.67
2023-03-06T13:58:22.590Z,72.33
2023-03-06T13:59:47.187Z,105.67
2023-03-06T14:01:10.601Z,98.50
2023-03-06T14:02:29.381Z,99.17
2023-03-06T14:04:26.012Z,121.00
2023-03-06T14:05:47.870Z,117.83
2023-03-06T14:06:53.937Z,132.17
2023-03-06T14:08:16.076Z,118.67
2023-03-06T14:09:37.575Z,112.33
2023-03-06T14:10:40.941Z,103.50
2023-03-06T14:11:52.496Z,98.17
2023-03-06T14:13:02.042Z,99.33
2023-03-06T14:14:04.381Z,103.50
2023-03-06T14:15:12.503Z,113.17
2023-03-06T14:16:49.320Z,115.00
2023-03-06T14:18:24.934Z,116.50
2023-03-06T14:19:31.973Z,113.50
2023-03-06T14:20:42.351Z,113.00
2023-03-06T14:21:44.651Z,111.17
2023-03-06T14:22:47.091Z,109.17
2023-03-06T14:24:00.311Z,109.00
2023-03-06T14:25:14.159Z,109.00
2023-03-06T14:26:20.993Z,105.33
2023-03-06T14:27:48.123Z,103.17